Time;durP1;ratioP1;P1;durP2;ratioP2;P2;SDS_P1;SDS_P2;PMS_P1;PMS_P2;Temp;Humidity;BMP_temperature;BMP_pressure;BME280_temperature;BME280_humidity;BME280_pressure;Samples;Min_cycle;Max_cycle;Signal;HPM_P1;HPM_P2
2023/01/31 00:01:03;;;;;;;4.18;1.20;;;19.60;54.50;;;;;;5073223;28;20125;-65
2023/01/31 00:03:28;;;;;;;5.20;1.20;;;19.50;54.50;;;;;;5073397;28;20048;-65
2023/01/31 00:05:54;;;;;;;4.75;1.13;;;19.50;54.40;;;;;;5073898;28;20040;-65
2023/01/31 00:08:19;;;;;;;4.45;1.10;;;19.50;54.40;;;;;;5073521;28;20131;-65
2023/01/31 00:10:45;;;;;;;3.95;1.02;;;19.50;54.40;;;;;;5059533;28;20097;-66
2023/01/31 00:13:10;;;;;;;5.05;1.10;;;19.50;54.50;;;;;;5052485;28;20485;-65
2023/01/31 00:15:36;;;;;;;6.07;1.35;;;19.50;54.40;;;;;;5052451;28;20096;-65
2023/01/31 00:18:02;;;;;;;7.05;1.13;;;19.50;54.40;;;;;;5053723;28;20075;-65
2023/01/31 00:20:27;;;;;;;4.95;0.90;;;19.50;54.50;;;;;;5053768;28;20045;-65
2023/01/31 00:22:53;;;;;;;4.95;1.15;;;19.40;54.40;;;;;;5052731;28;20046;-65
2023/01/31 00:25:18;;;;;;;4.50;1.10;;;19.40;54.40;;;;;;5054015;28;20040;-64
2023/01/31 00:27:44;;;;;;;5.60;1.10;;;19.40;54.40;;;;;;5053989;28;20041;-65
2023/01/31 00:30:10;;;;;;;4.95;1.10;;;19.40;54.40;;;;;;5052671;28;20085;-65
2023/01/31 00:32:35;;;;;;;3.83;1.05;;;19.40;54.50;;;;;;5053632;28;20511;-65
2023/01/31 00:35:01;;;;;;;4.28;0.95;;;19.40;54.50;;;;;;5055341;28;20041;-65
2023/01/31 00:37:27;;;;;;;5.20;1.10;;;19.40;54.50;;;;;;5060321;28;20113;-65
2023/01/31 00:39:52;;;;;;;6.45;1.10;;;19.40;54.50;;;;;;5070607;28;20052;-65
2023/01/31 00:42:18;;;;;;;4.05;1.30;;;19.40;54.50;;;;;;5053891;28;20036;-65
2023/01/31 00:44:43;;;;;;;5.18;1.00;;;19.40;54.50;;;;;;5052154;28;20492;-65
2023/01/31 00:47:09;;;;;;;6.82;1.23;;;19.40;54.50;;;;;;5053010;28;20048;-65
2023/01/31 00:49:34;;;;;;;5.50;1.00;;;19.30;54.50;;;;;;5052324;28;20041;-65
2023/01/31 00:52:00;;;;;;;6.55;1.25;;;19.30;54.50;;;;;;5053019;28;20547;-65
2023/01/31 00:54:25;;;;;;;4.05;1.17;;;19.30;54.60;;;;;;5053396;28;20551;-65
2023/01/31 00:56:51;;;;;;;5.03;0.90;;;19.30;54.50;;;;;;5051243;28;20106;-65
2023/01/31 00:59:16;;;;;;;5.63;0.85;;;19.30;54.60;;;;;;5051714;28;20037;-65
2023/01/31 01:01:42;;;;;;;4.47;0.98;;;19.30;54.60;;;;;;5053397;28;20052;-65
2023/01/31 01:04:08;;;;;;;3.92;0.77;;;19.30;54.60;;;;;;5051985;28;20127;-65
2023/01/31 01:06:33;;;;;;;4.75;1.20;;;19.30;54.60;;;;;;5053101;28;20123;-65
2023/01/31 01:08:59;;;;;;;3.22;1.13;;;19.30;54.60;;;;;;5052786;28;20082;-65
2023/01/31 01:11:26;;;;;;;4.63;0.90;;;19.30;54.60;;;;;;5052164;28;20460;-65
2023/01/31 01:13:52;;;;;;;3.80;1.27;;;19.30;54.60;;;;;;5052810;28;20083;-65
2023/01/31 01:16:19;;;;;;;6.43;1.55;;;19.20;54.60;;;;;;5052428;28;20092;-65
2023/01/31 01:18:47;;;;;;;5.30;0.82;;;19.20;54.60;;;;;;5052222;28;20049;-65
2023/01/31 01:21:17;;;;;;;4.40;0.75;;;19.20;54.70;;;;;;5052782;28;20111;-65
2023/01/31 01:23:43;;;;;;;4.40;1.00;;;19.20;54.60;;;;;;5052748;28;20439;-64
2023/01/31 01:26:16;;;;;;;4.57;1.10;;;19.20;54.70;;;;;;5051881;28;20481;-65
2023/01/31 01:28:42;;;;;;;3.80;1.10;;;19.20;54.70;;;;;;5052587;28;20083;-64
2023/01/31 01:31:10;;;;;;;3.35;0.90;;;19.20;54.70;;;;;;5051228;28;20081;-65
2023/01/31 01:33:35;;;;;;;4.20;1.15;;;19.20;55.50;;;;;;5051697;28;20385;-65
2023/01/31 01:36:05;;;;;;;4.82;0.93;;;19.20;54.70;;;;;;5052254;28;20473;-64
2023/01/31 01:38:36;;;;;;;5.80;1.15;;;19.20;55.00;;;;;;5052370;28;20040;-65
2023/01/31 01:41:01;;;;;;;4.03;0.90;;;19.10;54.70;;;;;;5050572;28;20045;-65
2023/01/31 01:43:49;;;;;;;5.47;1.20;;;19.10;54.80;;;;;;5052299;28;20056;-65
2023/01/31 01:46:35;;;;;;;5.27;1.13;;;19.10;54.70;;;;;;5051951;28;20056;-65
2023/01/31 01:49:15;;;;;;;2.45;0.65;;;19.10;54.70;;;;;;5051908;28;20040;-65
2023/01/31 01:51:41;;;;;;;4.30;0.95;;;19.10;54.80;;;;;;5066593;28;20037;-65
2023/01/31 01:54:10;;;;;;;4.10;1.00;;;19.10;54.80;;;;;;5050056;28;20055;-65
2023/01/31 01:56:37;;;;;;;3.70;0.93;;;19.10;54.80;;;;;;5038048;28;20045;-65
2023/01/31 01:59:14;;;;;;;4.40;0.93;;;19.10;54.90;;;;;;5031047;28;20512;-65
2023/01/31 02:01:39;;;;;;;3.83;0.82;;;19.10;54.90;;;;;;5038738;28;20045;-65
2023/01/31 02:04:06;;;;;;;3.40;0.88;;;19.00;54.80;;;;;;5050536;28;20045;-65
2023/01/31 02:06:31;;;;;;;4.22;0.90;;;19.00;54.80;;;;;;5050595;28;20045;-65
2023/01/31 02:08:57;;;;;;;3.92;1.17;;;19.00;54.80;;;;;;5033418;28;20095;-65
2023/01/31 02:11:28;;;;;;;4.70;0.98;;;19.00;55.50;;;;;;5052075;28;20053;-65
2023/01/31 02:14:11;;;;;;;3.55;0.95;;;19.00;54.90;;;;;;5051430;28;20404;-65
2023/01/31 02:16:37;;;;;;;3.00;0.82;;;19.00;54.80;;;;;;5051755;28;20076;-65
2023/01/31 02:19:03;;;;;;;3.90;0.90;;;19.00;54.90;;;;;;5051339;28;20488;-65
2023/01/31 02:22:01;;;;;;;3.25;0.80;;;19.00;54.90;;;;;;5049937;28;20048;-65
2023/01/31 02:24:43;;;;;;;6.03;1.25;;;18.90;54.80;;;;;;5051054;28;20048;-65
2023/01/31 02:27:22;;;;;;;3.75;0.73;;;18.90;54.90;;;;;;5050579;28;20041;-65
2023/01/31 02:30:17;;;;;;;3.67;0.80;;;18.90;54.90;;;;;;5049503;28;20049;-65
2023/01/31 02:32:55;;;;;;;3.17;0.85;;;18.90;54.80;;;;;;5050773;28;20049;-65
2023/01/31 02:35:29;;;;;;;3.63;0.70;;;18.90;54.90;;;;;;5050318;28;20041;-65
2023/01/31 02:38:16;;;;;;;4.18;1.05;;;18.90;54.90;;;;;;5051599;28;20037;-65
2023/01/31 02:41:04;;;;;;;4.70;0.90;;;18.90;54.90;;;;;;5052066;28;20146;-65
2023/01/31 02:46:53;;;;;;;4.88;0.80;;;18.90;54.90;;;;;;5050511;28;20484;-65
2023/01/31 02:49:34;;;;;;;4.65;0.80;;;18.90;54.80;;;;;;5050018;28;20123;-65
2023/01/31 02:52:15;;;;;;;3.40;0.70;;;18.90;54.90;;;;;;5050539;28;20048;-65
2023/01/31 02:57:31;;;;;;;6.30;1.60;;;18.90;54.90;;;;;;5050081;28;20517;-65
2023/01/31 02:59:57;;;;;;;4.43;0.75;;;18.90;54.90;;;;;;5049406;28;20069;-65
2023/01/31 03:02:22;;;;;;;5.43;1.30;;;18.90;54.90;;;;;;5049849;28;20037;-65
2023/01/31 03:04:48;;;;;;;3.22;0.75;;;18.90;54.90;;;;;;5048976;28;20049;-65
2023/01/31 03:07:25;;;;;;;3.78;0.70;;;18.90;54.90;;;;;;5051476;28;20044;-65
2023/01/31 03:09:59;;;;;;;3.42;0.98;;;18.90;55.00;;;;;;5050490;28;20049;-65
2023/01/31 03:12:50;;;;;;;3.25;0.73;;;18.90;54.90;;;;;;5064474;28;20037;-65
2023/01/31 03:15:19;;;;;;;3.67;0.70;;;18.90;54.90;;;;;;5070299;28;20862;-65
2023/01/31 03:18:00;;;;;;;2.70;0.52;;;18.90;55.00;;;;;;5069749;28;20087;-66
2023/01/31 03:20:54;;;;;;;5.03;0.93;;;18.90;55.00;;;;;;5072806;28;20416;-65
2023/01/31 03:23:20;;;;;;;5.00;0.80;;;18.90;55.60;;;;;;5074204;28;20071;-65
2023/01/31 03:25:46;;;;;;;3.55;0.77;;;18.90;55.00;;;;;;5073421;28;20067;-65
2023/01/31 03:28:13;;;;;;;3.17;0.80;;;18.90;55.00;;;;;;5073554;28;20507;-65
2023/01/31 03:30:53;;;;;;;3.38;0.82;;;18.90;55.00;;;;;;5073587;28;20056;-65
2023/01/31 03:33:22;;;;;;;4.22;0.70;;;18.90;55.00;;;;;;5073221;28;20095;-65
2023/01/31 03:35:55;;;;;;;2.33;0.55;;;18.90;55.00;;;;;;5074631;28;20048;-65
2023/01/31 03:38:24;;;;;;;4.75;0.93;;;18.90;55.00;;;;;;5069960;28;20036;-65
2023/01/31 03:40:56;;;;;;;3.88;0.80;;;18.90;55.00;;;;;;5054606;28;20048;-65
2023/01/31 03:43:30;;;;;;;3.08;0.88;;;18.90;55.00;;;;;;5053664;28;20049;-65
2023/01/31 03:46:02;;;;;;;3.90;0.98;;;18.90;55.00;;;;;;5052553;28;20041;-65
2023/01/31 03:48:31;;;;;;;2.28;0.60;;;18.90;55.00;;;;;;5053622;28;20045;-65
2023/01/31 03:50:58;;;;;;;4.60;0.80;;;19.00;55.00;;;;;;5052723;28;20049;-65
2023/01/31 03:53:48;;;;;;;3.67;0.77;;;19.00;55.00;;;;;;5051397;28;20041;-65
2023/01/31 03:56:31;;;;;;;2.60;0.68;;;19.00;55.00;;;;;;5053580;28;20041;-66
2023/01/31 03:59:00;;;;;;;3.50;0.70;;;19.00;55.00;;;;;;5053234;28;20087;-65
2023/01/31 04:01:26;;;;;;;2.47;0.60;;;19.00;55.00;;;;;;5052734;28;20045;-65
2023/01/31 04:04:01;;;;;;;4.25;0.95;;;19.00;54.90;;;;;;5052995;28;20048;-65
2023/01/31 04:06:26;;;;;;;4.40;0.75;;;19.00;54.90;;;;;;5034017;28;20045;-65
2023/01/31 04:08:52;;;;;;;3.15;1.00;;;19.10;54.90;;;;;;5033121;28;20050;-65
2023/01/31 04:11:19;;;;;;;2.60;0.90;;;19.10;55.00;;;;;;5033234;28;20096;-65
2023/01/31 04:13:45;;;;;;;2.30;0.70;;;19.10;54.90;;;;;;5033499;28;20543;-65
2023/01/31 04:16:10;;;;;;;2.97;0.70;;;19.10;54.90;;;;;;5033649;28;20140;-65
2023/01/31 04:18:36;;;;;;;2.58;0.60;;;19.10;54.90;;;;;;5033975;28;20564;-65
2023/01/31 04:21:01;;;;;;;4.82;0.95;;;19.10;54.90;;;;;;5035517;28;20073;-65
2023/01/31 04:23:27;;;;;;;2.70;0.80;;;19.20;55.60;;;;;;5073952;28;20044;-65
2023/01/31 04:25:53;;;;;;;3.85;0.98;;;19.20;54.80;;;;;;5073835;28;20043;-65
2023/01/31 04:28:19;;;;;;;2.63;0.70;;;19.20;54.80;;;;;;5073199;28;20040;-65
2023/01/31 04:30:45;;;;;;;4.03;0.90;;;19.20;54.80;;;;;;5072593;28;20049;-65
2023/01/31 04:33:10;;;;;;;2.17;0.70;;;19.20;54.80;;;;;;5064423;28;20140;-65
2023/01/31 04:35:39;;;;;;;4.25;0.65;;;19.20;54.70;;;;;;5052890;28;20378;-65
2023/01/31 04:38:04;;;;;;;3.80;0.77;;;19.30;54.80;;;;;;5053281;28;20045;-66
2023/01/31 04:40:30;;;;;;;3.38;0.80;;;19.20;54.70;;;;;;5053654;28;20059;-66
2023/01/31 04:42:55;;;;;;;2.03;0.60;;;19.30;54.70;;;;;;5052661;28;20124;-66
2023/01/31 04:45:21;;;;;;;3.78;0.70;;;19.30;54.70;;;;;;5053530;28;20441;-66
2023/01/31 04:47:46;;;;;;;2.97;0.60;;;19.30;54.70;;;;;;5052216;28;20037;-66
2023/01/31 04:50:12;;;;;;;2.03;0.65;;;19.30;54.60;;;;;;5052701;28;20037;-66
2023/01/31 04:52:37;;;;;;;4.70;0.60;;;19.30;54.60;;;;;;5060813;28;20499;-66
2023/01/31 04:55:03;;;;;;;4.13;0.73;;;19.30;54.60;;;;;;5054692;28;20045;-66
2023/01/31 04:57:29;;;;;;;3.40;0.73;;;19.30;54.60;;;;;;5052802;28;20151;-66
2023/01/31 04:59:54;;;;;;;4.30;0.90;;;19.30;54.60;;;;;;5053008;28;20040;-66
2023/01/31 05:02:22;;;;;;;2.85;0.57;;;19.40;54.60;;;;;;5053005;28;20052;-65
2023/01/31 05:04:47;;;;;;;3.05;0.80;;;19.30;54.50;;;;;;5051104;28;20064;-66
2023/01/31 05:07:13;;;;;;;2.72;0.68;;;19.40;54.60;;;;;;5051466;28;20396;-66
2023/01/31 05:09:41;;;;;;;3.67;0.88;;;19.40;54.50;;;;;;5052684;28;20135;-66
2023/01/31 05:12:07;;;;;;;2.47;0.60;;;19.40;54.50;;;;;;5052109;28;20049;-66
2023/01/31 05:14:33;;;;;;;3.30;0.60;;;19.40;54.50;;;;;;5053086;28;20045;-66
2023/01/31 05:16:58;;;;;;;3.47;0.57;;;19.40;54.50;;;;;;5051820;28;20183;-66
2023/01/31 05:19:24;;;;;;;3.88;0.80;;;19.40;54.50;;;;;;5053090;28;20045;-66
2023/01/31 05:21:58;;;;;;;3.15;0.70;;;19.50;54.50;;;;;;5049897;28;20049;-66
2023/01/31 05:24:28;;;;;;;4.07;0.88;;;19.50;54.50;;;;;;5032457;28;20091;-66
2023/01/31 05:26:57;;;;;;;3.70;0.70;;;19.50;54.40;;;;;;5032560;28;20505;-65
2023/01/31 05:29:27;;;;;;;2.83;0.63;;;19.50;54.40;;;;;;5032878;28;20041;-65
2023/01/31 05:31:54;;;;;;;2.92;0.70;;;19.50;54.40;;;;;;5031730;28;20056;-66
2023/01/31 05:34:19;;;;;;;3.05;0.63;;;19.50;54.40;;;;;;5032575;28;20048;-65
2023/01/31 05:36:45;;;;;;;3.75;0.70;;;19.50;54.30;;;;;;5031428;28;20432;-66
2023/01/31 05:39:11;;;;;;;3.42;1.00;;;19.50;54.30;;;;;;5031435;28;20680;-65
2023/01/31 05:41:36;;;;;;;5.15;0.80;;;19.50;54.30;;;;;;5032265;28;20041;-65
2023/01/31 05:44:02;;;;;;;2.90;0.63;;;19.50;54.30;;;;;;5032411;28;20063;-66
2023/01/31 05:46:27;;;;;;;3.40;0.55;;;19.60;54.30;;;;;;5038655;28;20102;-66
2023/01/31 05:48:53;;;;;;;3.42;0.63;;;19.60;54.40;;;;;;5052087;28;20048;-66
2023/01/31 05:51:18;;;;;;;4.45;0.80;;;19.60;54.30;;;;;;5051320;28;20048;-65
2023/01/31 05:53:44;;;;;;;3.30;0.70;;;19.60;54.30;;;;;;5051800;28;20037;-65
2023/01/31 05:56:10;;;;;;;2.58;0.52;;;19.60;54.30;;;;;;5052026;28;20147;-66
2023/01/31 05:58:36;;;;;;;3.20;0.60;;;19.60;54.30;;;;;;5052374;28;20037;-66
2023/01/31 06:01:01;;;;;;;2.75;0.60;;;19.60;54.30;;;;;;5051102;28;20507;-66
2023/01/31 06:03:27;;;;;;;3.20;0.60;;;19.60;54.30;;;;;;5051498;28;20068;-65
2023/01/31 06:05:52;;;;;;;2.08;0.50;;;19.60;54.20;;;;;;5051693;28;20041;-66
2023/01/31 06:08:18;;;;;;;2.63;0.63;;;19.70;54.20;;;;;;5050201;28;20045;-66
2023/01/31 06:10:43;;;;;;;5.45;1.35;;;19.60;54.20;;;;;;5051177;28;20077;-66
2023/01/31 06:13:09;;;;;;;3.47;0.90;;;19.70;54.20;;;;;;5050978;28;20037;-65
2023/01/31 06:15:36;;;;;;;4.07;1.08;;;19.70;54.20;;;;;;5051300;28;20057;-66
2023/01/31 06:18:02;;;;;;;3.70;0.65;;;19.70;54.20;;;;;;5052178;28;20090;-66
2023/01/31 06:20:28;;;;;;;3.15;0.60;;;19.70;54.20;;;;;;5050934;28;20045;-66
2023/01/31 06:22:53;;;;;;;4.95;0.80;;;19.70;54.20;;;;;;5049367;28;20063;-67
2023/01/31 06:25:19;;;;;;;3.60;0.80;;;19.70;54.10;;;;;;5052068;28;20041;-65
2023/01/31 06:27:45;;;;;;;2.65;0.60;;;19.70;54.10;;;;;;5051454;28;20045;-65
2023/01/31 06:30:11;;;;;;;4.57;0.85;;;19.70;54.10;;;;;;5050815;28;20053;-65
2023/01/31 06:32:36;;;;;;;3.65;0.70;;;19.70;54.80;;;;;;5051910;28;20045;-65
2023/01/31 06:35:03;;;;;;;3.10;0.63;;;19.80;54.20;;;;;;5050816;28;20132;-66
2023/01/31 06:37:28;;;;;;;2.92;0.82;;;19.80;54.10;;;;;;5051810;28;20041;-65
2023/01/31 06:39:54;;;;;;;4.32;0.77;;;19.80;54.20;;;;;;5051697;28;20037;-67
2023/01/31 06:42:19;;;;;;;4.35;0.75;;;19.80;54.10;;;;;;5048842;28;20048;-64
2023/01/31 06:44:45;;;;;;;4.85;0.80;;;19.80;54.10;;;;;;5051085;28;20529;-64
2023/01/31 06:47:11;;;;;;;2.60;0.60;;;19.80;54.00;;;;;;5050096;28;20508;-63
2023/01/31 06:49:38;;;;;;;3.08;0.88;;;19.80;54.10;;;;;;5051096;28;20084;-63
2023/01/31 06:52:03;;;;;;;3.88;1.10;;;19.80;54.10;;;;;;5051198;28;20041;-64
2023/01/31 06:54:29;;;;;;;6.13;0.75;;;19.80;54.10;;;;;;5069118;28;20070;-63
2023/01/31 06:56:54;;;;;;;5.20;0.70;;;19.80;54.10;;;;;;5073216;28;20080;-63
2023/01/31 06:59:20;;;;;;;5.65;0.93;;;19.80;54.10;;;;;;5075694;28;20045;-64
2023/01/31 07:01:45;;;;;;;6.75;1.13;;;19.90;54.10;;;;;;5075288;28;20044;-64
2023/01/31 07:04:11;;;;;;;3.88;0.98;;;19.90;54.10;;;;;;5074186;28;20097;-64
2023/01/31 07:06:37;;;;;;;4.50;0.70;;;19.90;54.10;;;;;;5075052;28;20055;-64
2023/01/31 07:09:02;;;;;;;4.13;0.80;;;19.90;54.10;;;;;;5064433;28;20586;-64
2023/01/31 07:11:28;;;;;;;3.47;0.70;;;19.90;54.10;;;;;;5054558;28;20405;-64
2023/01/31 07:13:53;;;;;;;3.47;0.77;;;19.80;54.10;;;;;;5054768;28;20090;-63
2023/01/31 07:16:21;;;;;;;6.18;0.95;;;19.90;54.90;;;;;;5055167;28;20092;-68
2023/01/31 07:18:46;;;;;;;5.22;0.90;;;19.80;54.20;;;;;;5054176;28;20044;-65
2023/01/31 07:21:12;;;;;;;4.93;1.10;;;19.80;54.40;;;;;;5054723;28;20150;-66
2023/01/31 07:23:40;;;;;;;5.60;1.23;;;19.90;54.50;;;;;;5054446;28;20128;-65
2023/01/31 07:26:06;;;;;;;2.85;0.90;;;19.80;54.60;;;;;;5054960;28;20056;-65
2023/01/31 07:28:31;;;;;;;5.88;1.58;;;19.90;54.80;;;;;;5055082;28;20049;-65
2023/01/31 07:31:04;;;;;;;3.88;1.10;;;19.90;54.80;;;;;;5053999;28;20045;-66
2023/01/31 07:33:30;;;;;;;5.10;1.25;;;19.90;55.00;;;;;;5055189;28;20041;-65
2023/01/31 07:35:56;;;;;;;4.47;1.08;;;19.90;55.00;;;;;;5053099;28;20044;-64
2023/01/31 07:38:21;;;;;;;4.95;1.00;;;19.90;55.00;;;;;;5069376;28;20051;-67
2023/01/31 07:40:47;;;;;;;4.05;0.93;;;19.90;55.10;;;;;;5054544;28;20041;-66
2023/01/31 07:43:12;;;;;;;6.43;1.10;;;19.90;55.00;;;;;;5054258;28;20048;-64
2023/01/31 07:45:38;;;;;;;7.43;1.23;;;19.90;55.00;;;;;;5053808;28;20033;-66
2023/01/31 07:48:05;;;;;;;4.32;1.13;;;19.90;55.10;;;;;;5053181;28;20540;-66
2023/01/31 07:50:30;;;;;;;6.50;1.42;;;20.00;55.10;;;;;;5054575;28;20045;-67
2023/01/31 07:52:57;;;;;;;5.68;0.85;;;20.00;55.20;;;;;;5053474;28;20055;-66
2023/01/31 07:55:23;;;;;;;4.88;1.02;;;20.00;55.30;;;;;;5052528;28;20048;-64
2023/01/31 07:57:49;;;;;;;5.95;1.13;;;20.00;55.40;;;;;;5054058;28;20045;-69
2023/01/31 08:05:45;;;;;;;5.00;1.02;;;20.00;55.40;;;;;;5053447;28;20086;-66
2023/01/31 08:08:10;;;;;;;4.95;1.05;;;20.00;55.50;;;;;;5035818;28;20546;-66
2023/01/31 08:10:36;;;;;;;4.80;1.38;;;20.00;55.50;;;;;;5054215;28;20045;-66
2023/01/31 08:13:02;;;;;;;6.40;0.90;;;20.00;55.50;;;;;;5052986;28;20045;-65
2023/01/31 08:15:27;;;;;;;5.10;1.00;;;20.00;55.50;;;;;;5053968;28;20053;-65
2023/01/31 08:17:53;;;;;;;5.43;1.15;;;20.10;55.60;;;;;;5053650;28;20053;-65
2023/01/31 08:20:19;;;;;;;5.43;0.90;;;20.10;55.60;;;;;;5053012;28;20040;-65
2023/01/31 08:22:44;;;;;;;6.40;1.10;;;20.10;55.60;;;;;;5053492;28;20607;-64
2023/01/31 08:25:10;;;;;;;5.18;0.98;;;20.10;55.60;;;;;;5053148;28;20045;-65
2023/01/31 08:27:35;;;;;;;4.97;1.00;;;20.10;55.60;;;;;;5050407;28;20047;-64
2023/01/31 08:30:01;;;;;;;4.05;1.00;;;20.10;55.60;;;;;;5052955;28;20136;-68
2023/01/31 08:32:26;;;;;;;6.03;1.27;;;20.10;55.60;;;;;;5053218;28;20045;-65
2023/01/31 08:34:52;;;;;;;6.38;1.40;;;20.10;55.60;;;;;;5052582;28;20045;-64
2023/01/31 08:37:17;;;;;;;4.43;1.00;;;20.10;55.70;;;;;;5053458;28;20052;-65
2023/01/31 08:39:43;;;;;;;5.32;0.90;;;20.10;55.70;;;;;;5053461;28;20037;-64
2023/01/31 08:42:08;;;;;;;6.28;1.00;;;20.10;55.70;;;;;;5052403;28;20044;-65
2023/01/31 08:44:37;;;;;;;7.28;1.35;;;20.10;55.70;;;;;;5053426;28;20045;-65
2023/01/31 08:47:02;;;;;;;5.72;1.35;;;20.10;55.80;;;;;;5053070;28;20057;-64
2023/01/31 08:49:28;;;;;;;6.05;1.20;;;20.10;55.80;;;;;;5052537;28;20055;-65
2023/01/31 08:51:53;;;;;;;5.88;1.48;;;20.10;55.80;;;;;;5053134;28;20048;-65
2023/01/31 08:54:19;;;;;;;7.53;1.10;;;20.10;55.70;;;;;;5052797;28;20090;-62
2023/01/31 08:56:44;;;;;;;3.47;1.02;;;20.10;55.80;;;;;;5052372;28;20045;-64
2023/01/31 08:59:10;;;;;;;5.70;1.38;;;20.10;55.70;;;;;;5052948;28;20041;-65
2023/01/31 09:01:37;;;;;;;4.78;1.00;;;20.10;55.80;;;;;;5052974;28;20079;-65
2023/01/31 09:04:02;;;;;;;4.20;1.00;;;20.10;55.80;;;;;;5051698;28;20473;-66
2023/01/31 09:06:28;;;;;;;5.07;1.42;;;20.10;55.70;;;;;;5053065;28;20047;-65
2023/01/31 09:08:57;;;;;;;8.43;1.30;;;20.10;55.70;;;;;;5052399;28;20127;-66
2023/01/31 09:11:22;;;;;;;7.80;1.33;;;20.10;55.60;;;;;;5063364;28;20055;-65
2023/01/31 09:13:50;;;;;;;4.72;1.00;;;20.10;55.60;;;;;;5072489;28;20040;-65
2023/01/31 09:16:15;;;;;;;5.97;1.07;;;20.10;55.50;;;;;;5071753;28;20180;-65
2023/01/31 09:18:41;;;;;;;7.72;1.30;;;20.10;55.50;;;;;;5072471;28;20372;-65
2023/01/31 09:21:07;;;;;;;6.47;1.15;;;20.10;55.60;;;;;;5072323;28;20080;-66
2023/01/31 09:23:33;;;;;;;6.35;1.20;;;20.10;55.60;;;;;;5071844;28;20048;-66
2023/01/31 09:25:58;;;;;;;4.18;1.23;;;20.10;55.70;;;;;;5071354;28;20044;-66
2023/01/31 09:28:24;;;;;;;15.13;1.30;;;20.10;55.60;;;;;;5072419;28;20052;-66
2023/01/31 09:30:52;;;;;;;7.47;1.27;;;20.20;55.70;;;;;;5062022;28;20037;-66
2023/01/31 09:33:18;;;;;;;7.90;1.30;;;20.20;55.60;;;;;;5051839;28;20489;-66
2023/01/31 09:35:54;;;;;;;11.23;2.13;;;20.20;55.60;;;;;;5052041;28;20063;-66
2023/01/31 09:38:20;;;;;;;5.97;1.30;;;20.20;55.40;;;;;;5051103;28;20049;-66
2023/01/31 09:40:46;;;;;;;8.32;1.10;;;20.20;55.30;;;;;;5067191;28;20052;-66
2023/01/31 09:43:11;;;;;;;6.32;1.38;;;20.10;55.20;;;;;;5051959;28;20045;-65
2023/01/31 09:45:38;;;;;;;8.38;1.30;;;20.10;55.20;;;;;;5054516;28;20051;-66
2023/01/31 09:48:04;;;;;;;7.00;1.55;;;20.10;55.10;;;;;;5051750;28;20110;-65
2023/01/31 09:50:48;;;;;;;5.57;1.05;;;20.10;55.10;;;;;;5034489;28;20386;-65
2023/01/31 09:53:23;;;;;;;6.53;1.08;;;20.10;55.00;;;;;;5050377;28;20416;-66
2023/01/31 09:56:08;;;;;;;7.85;1.75;;;20.10;55.10;;;;;;5051537;28;20082;-65
2023/01/31 09:58:35;;;;;;;10.15;1.75;;;20.10;55.30;;;;;;5050382;28;20048;-67
2023/01/31 10:01:20;;;;;;;6.72;1.30;;;20.10;55.40;;;;;;5051619;28;20048;-67
2023/01/31 10:04:04;;;;;;;5.15;0.88;;;20.10;55.40;;;;;;5051928;28;20045;-66
2023/01/31 10:06:37;;;;;;;5.63;1.02;;;20.10;55.40;;;;;;5051284;28;20049;-66
2023/01/31 10:09:23;;;;;;;4.38;1.30;;;20.10;55.30;;;;;;5049985;28;20051;-69
2023/01/31 10:12:00;;;;;;;7.70;1.35;;;20.10;55.30;;;;;;5047657;28;20056;-71
2023/01/31 10:14:36;;;;;;;3.60;1.00;;;20.10;55.30;;;;;;5049812;28;20045;-71
2023/01/31 10:17:12;;;;;;;4.20;0.90;;;20.10;55.40;;;;;;5050345;28;20056;-71
2023/01/31 10:19:44;;;;;;;6.18;1.25;;;20.10;55.40;;;;;;5033177;28;20447;-69
2023/01/31 10:22:14;;;;;;;4.88;1.27;;;20.10;55.40;;;;;;5050508;28;20481;-66
2023/01/31 10:24:43;;;;;;;5.68;1.10;;;20.10;55.40;;;;;;5050782;28;20556;-70
2023/01/31 10:27:17;;;;;;;7.65;1.35;;;20.10;55.40;;;;;;5050967;28;20072;-67
2023/01/31 10:29:46;;;;;;;5.38;1.40;;;20.10;55.40;;;;;;5054569;28;20071;-69
2023/01/31 10:32:33;;;;;;;4.40;1.42;;;20.10;55.50;;;;;;5054585;28;20051;-69
2023/01/31 10:35:11;;;;;;;6.20;1.20;;;20.10;55.50;;;;;;5055123;28;20067;-69
2023/01/31 10:37:52;;;;;;;4.53;1.13;;;20.10;55.50;;;;;;5054740;28;20040;-67
2023/01/31 10:40:34;;;;;;;8.32;1.10;;;20.10;55.60;;;;;;5054828;28;20045;-67
2023/01/31 10:43:21;;;;;;;5.93;1.30;;;20.10;55.60;;;;;;5054369;28;20045;-69
2023/01/31 10:45:47;;;;;;;7.85;1.13;;;20.10;55.50;;;;;;5065945;28;20053;-71
2023/01/31 10:48:25;;;;;;;5.60;1.38;;;20.10;55.60;;;;;;5074800;28;20047;-65
2023/01/31 10:51:04;;;;;;;4.13;1.52;;;20.10;55.70;;;;;;5075508;28;20041;-66
2023/01/31 10:53:56;;;;;;;4.72;1.23;;;20.10;55.70;;;;;;5075667;28;20033;-65
2023/01/31 10:56:27;;;;;;;4.82;1.00;;;20.10;55.50;;;;;;5073335;28;20503;-65
2023/01/31 10:58:52;;;;;;;4.10;1.33;;;20.10;55.50;;;;;;5074808;28;20377;-64
2023/01/31 11:01:18;;;;;;;3.25;0.85;;;20.10;55.40;;;;;;5075739;28;20048;-65
2023/01/31 11:03:52;;;;;;;5.68;1.30;;;20.10;55.40;;;;;;5074895;28;20041;-69
2023/01/31 11:06:18;;;;;;;3.78;0.88;;;20.10;55.20;;;;;;5074766;28;20040;-68
2023/01/31 11:08:58;;;;;;;5.43;1.50;;;20.10;55.20;;;;;;5073849;28;20047;-69
2023/01/31 11:11:24;;;;;;;3.83;1.20;;;20.10;55.10;;;;;;5074267;28;20094;-65
2023/01/31 11:13:58;;;;;;;6.55;1.20;;;20.10;55.10;;;;;;5075255;28;20378;-66
2023/01/31 11:16:24;;;;;;;4.70;1.35;;;20.10;55.00;;;;;;5074407;28;20092;-67
2023/01/31 11:18:50;;;;;;;4.60;1.23;;;20.00;55.00;;;;;;5075364;28;20090;-66
2023/01/31 11:21:24;;;;;;;6.03;1.38;;;20.10;55.00;;;;;;5073745;28;20036;-65
2023/01/31 11:23:50;;;;;;;6.05;1.00;;;20.10;55.00;;;;;;5053991;28;20053;-63
2023/01/31 11:26:33;;;;;;;7.70;1.52;;;20.10;55.10;;;;;;5053959;28;20481;-63
2023/01/31 11:28:58;;;;;;;5.90;1.02;;;20.00;55.10;;;;;;5053790;28;20044;-63
2023/01/31 11:31:29;;;;;;;6.68;1.20;;;20.10;55.10;;;;;;5054436;28;20094;-63
2023/01/31 11:34:02;;;;;;;5.20;0.88;;;20.00;55.10;;;;;;5053838;28;20032;-63
2023/01/31 11:36:32;;;;;;;6.15;1.58;;;20.00;55.10;;;;;;5055348;28;20115;-63
2023/01/31 11:38:58;;;;;;;6.43;1.27;;;20.00;55.00;;;;;;5053777;28;20545;-63
2023/01/31 11:41:26;;;;;;;4.40;1.00;;;20.00;55.00;;;;;;5053369;28;20120;-63
2023/01/31 11:44:25;;;;;;;3.78;0.88;;;20.00;55.00;;;;;;5054148;28;20146;-63
2023/01/31 11:46:59;;;;;;;7.40;1.10;;;20.00;55.00;;;;;;5054457;28;20092;-64
2023/01/31 11:49:36;;;;;;;4.55;1.10;;;20.00;55.10;;;;;;5053491;28;20055;-63
2023/01/31 11:52:15;;;;;;;6.65;1.17;;;20.00;55.10;;;;;;5052794;28;20044;-65
2023/01/31 11:54:45;;;;;;;6.80;1.15;;;20.00;55.10;;;;;;5051064;28;20041;-62
2023/01/31 11:57:38;;;;;;;7.10;0.90;;;19.90;55.10;;;;;;5052249;28;20107;-63
2023/01/31 12:00:06;;;;;;;7.03;1.38;;;20.00;55.40;;;;;;5051539;28;20147;-62
2023/01/31 12:02:34;;;;;;;6.10;1.02;;;19.90;55.40;;;;;;5052193;28;20389;-62
2023/01/31 12:05:01;;;;;;;4.93;0.80;;;19.90;55.50;;;;;;5052089;28;20053;-62
2023/01/31 12:07:49;;;;;;;4.60;1.30;;;19.90;55.60;;;;;;5051985;28;20091;-62
2023/01/31 12:10:53;;;;;;;5.38;1.13;;;19.90;55.70;;;;;;5052456;28;20045;-61
2023/01/31 12:13:19;;;;;;;5.63;1.25;;;19.90;55.80;;;;;;5039338;28;20417;-62
2023/01/31 12:16:00;;;;;;;5.65;1.17;;;19.90;55.90;;;;;;5040145;28;20207;-62
2023/01/31 12:18:50;;;;;;;7.53;0.90;;;19.90;55.90;;;;;;5043422;28;20115;-61
2023/01/31 12:21:19;;;;;;;4.80;0.90;;;19.90;55.90;;;;;;5033789;28;20049;-61
2023/01/31 12:24:03;;;;;;;6.50;1.10;;;19.90;55.90;;;;;;5052191;28;20041;-62
2023/01/31 12:26:45;;;;;;;5.35;1.10;;;19.90;56.00;;;;;;5053160;28;20539;-61
2023/01/31 12:29:33;;;;;;;2.97;0.90;;;19.90;56.00;;;;;;5052010;28;20076;-62
2023/01/31 12:32:07;;;;;;;4.68;1.30;;;19.90;56.10;;;;;;5051021;28;20404;-62
2023/01/31 12:34:40;;;;;;;4.28;0.90;;;19.90;56.00;;;;;;5052295;28;20084;-64
2023/01/31 12:37:44;;;;;;;4.15;1.00;;;19.90;56.10;;;;;;5051377;28;20040;-64
2023/01/31 12:40:20;;;;;;;3.92;0.77;;;19.90;56.10;;;;;;5012777;28;20061;-64
2023/01/31 12:42:59;;;;;;;4.43;1.30;;;19.90;56.20;;;;;;5048020;28;20519;-65
2023/01/31 12:46:08;;;;;;;4.97;0.80;;;19.90;56.20;;;;;;5051640;28;20175;-64
2023/01/31 12:48:43;;;;;;;4.55;1.00;;;20.00;56.30;;;;;;5017471;28;20080;-65
2023/01/31 12:51:36;;;;;;;3.30;1.02;;;20.00;56.30;;;;;;5031483;28;20132;-65
2023/01/31 12:54:16;;;;;;;5.40;1.00;;;20.00;56.30;;;;;;5032371;28;20054;-65
2023/01/31 12:56:57;;;;;;;4.90;1.10;;;20.00;56.40;;;;;;5032069;28;20132;-64
2023/01/31 13:00:02;;;;;;;4.57;1.08;;;20.00;56.40;;;;;;5033508;28;20076;-64
2023/01/31 13:02:38;;;;;;;4.38;1.08;;;20.00;56.40;;;;;;5032011;28;20077;-63
2023/01/31 13:05:07;;;;;;;5.25;0.90;;;20.00;56.40;;;;;;5045418;28;20060;-64
2023/01/31 13:07:39;;;;;;;4.57;0.82;;;20.00;56.40;;;;;;5052792;28;20177;-64
2023/01/31 13:10:10;;;;;;;4.47;1.10;;;20.00;56.40;;;;;;5051523;28;20083;-64
2023/01/31 13:12:35;;;;;;;3.75;0.85;;;20.10;56.40;;;;;;5051797;28;20495;-64